RODA DE TER (Osona)





Hora UTC 08:50
Temperatura 8.6 ºC
Humedad 99.5 %
Pluja 0.2 mm
Velocidad viento 0.4 km/h
Dirección viento W

Datos diarios 2022-12-10



Hora UTC (invierno +1h; verano +2h)
Temperatura (ºC) Humedad (%) Velocidad viento (km/h) Precipitación (mm)
Hora UTC Aire Humedad Vel. Dir. Vel. Max Dir. Intent. máx 5 min.
00:05 8.9 98.0 2.8 ENE 2.8 ENE 0.0
00:10 8.9 97.9 1.1 ENE 3.5 NE 0.0
00:15 8.9 97.9 1.4 ENE 2.5 ENE 0.0
00:20 8.8 97.9 0.7 ENE 1.8 ENE 0.0
00:25 8.8 98.0 0.0 NNE 0.0 ENE 0.0
00:30 8.9 97.9 0.0 NNE 0.0 ENE 0.0
00:35 8.8 97.7 0.9 NE 2.5 NE 0.0
00:40 8.8 97.7 2.1 NNE 3.2 NNE 0.0
00:45 8.8 97.7 2.1 NNE 3.2 NNE 0.0
00:50 8.8 97.7 2.3 N 3.2 N 0.1
00:55 8.8 97.6 1.1 NNE 2.8 NNE 0.0
01:00 8.7 97.7 1.1 NNE 2.8 NNE 0.0
01:05 8.8 97.8 0.9 NNE 2.5 NNE 0.0
01:10 8.8 97.8 0.5 NNE 2.8 NNE 0.0
01:15 8.7 97.8 1.5 NNE 3.2 NNE 0.0
01:20 8.7 97.9 0.0 NNE 0.0 NNE 0.0
01:25 8.7 97.9 0.1 NE 1.4 NE 0.0
01:30 8.6 98.0 0.1 NE 1.1 NE 0.0
01:35 8.5 98.1 0.0 NNE 0.0 NE 0.0
01:40 8.5 98.2 0.0 NNE 0.0 NE 0.0
01:45 8.6 98.4 0.0 NNE 0.0 NE 0.0
01:50 8.6 98.5 0.3 NE 2.1 NE 0.0
01:55 8.6 98.5 1.7 NE 2.8 NE 0.0
02:00 8.6 98.4 1.2 NE 2.8 NE 0.0
02:05 8.6 98.4 0.0 NNE 0.0 NE 0.0
02:10 8.5 98.3 0.0 NNE 0.0 NE 0.0
02:15 8.4 98.4 0.0 NNE 0.0 NE 0.0
02:20 8.3 98.4 0.7 SSE 2.5 S 0.0
02:25 8.3 98.6 2.8 S 4.2 S 0.1
02:30 8.4 98.7 3.8 SSE 4.2 SSE 0.0
02:35 8.5 98.6 3.9 SSE 4.6 SSE 0.0
02:40 8.4 98.6 1.9 SSE 3.9 SSE 0.0
02:45 8.3 98.5 0.9 N 2.8 N 0.0
02:50 8.2 98.6 0.9 N 2.5 N 0.0
02:55 8.1 98.5 1.6 WSW 3.9 WSW 0.0
03:00 8.1 98.6 1.3 SW 3.5 WSW 0.0
03:05 8.3 98.9 0.4 E 1.8 ESE 0.0
03:10 8.2 98.7 0.0 NNE 0.0 E 0.0
03:15 8.0 98.6 0.5 ENE 2.1 ENE 0.0
03:20 8.2 98.9 2.2 ENE 3.5 ENE 0.0
03:25 8.3 98.9 2.0 NE 3.5 ENE 0.0
03:30 8.2 98.6 0.0 NNE 0.0 NE 0.0
03:35 8.0 98.5 1.5 NE 2.1 NE 0.0
03:40 8.1 98.6 1.4 NE 2.5 NE 0.0
03:45 8.1 98.7 1.0 NE 3.2 NE 0.0
03:50 8.1 98.8 0.1 NE 1.8 NE 0.0
03:55 8.2 98.8 0.9 NE 2.8 NE 0.0
04:00 8.2 98.8 2.1 NE 3.2 NE 0.0
04:05 8.2 98.9 2.2 NE 3.5 NE 0.0
04:10 8.2 98.8 0.8 NE 2.1 NE 0.0
04:15 8.2 98.9 2.0 NE 3.9 NE 0.0
04:20 8.3 99.0 3.1 E 4.9 E 0.0
04:25 8.4 99.0 2.5 E 4.9 E 0.0
04:30 8.4 99.1 1.5 ENE 3.2 E 0.0
04:35 8.4 99.1 4.1 SE 6.7 SE 0.0
04:40 8.4 99.0 5.8 SE 6.7 SE 0.0
04:45 8.3 99.0 6.4 SE 7.8 SE 0.0
04:50 8.3 99.1 4.7 SE 6.7 SE 0.0
04:55 8.3 99.1 1.7 SE 2.8 SE 0.0
05:00 8.3 99.2 2.8 S 4.2 S 0.0
05:05 8.3 99.2 1.2 S 2.1 S 0.0
05:10 8.4 99.2 2.3 S 3.5 S 0.0
05:15 8.3 99.2 1.8 S 2.8 S 0.0
05:20 8.3 99.3 1.2 SSW 2.5 SSW 0.0
05:25 8.4 99.3 2.8 S 3.9 SSE 0.0
05:30 8.4 99.3 1.1 S 3.5 SSW 0.0
05:35 8.4 99.3 1.8 SW 3.9 WSW 0.0
05:40 8.4 99.3 2.6 WSW 3.5 WSW 0.0
05:45 8.4 99.3 1.8 WSW 3.5 W 0.0
05:50 8.4 99.4 2.0 WNW 4.6 NW 0.0
05:55 8.3 99.4 3.5 WSW 6.4 WSW 0.0
06:00 8.3 99.4 4.5 WSW 6.0 WSW 0.0
06:05 8.3 99.4 4.5 WSW 6.0 WSW 0.0
06:10 8.3 99.4 3.0 WSW 3.9 WSW 0.0
06:15 8.3 99.5 3.7 SW 6.4 SW 0.0
06:20 8.3 99.5 2.9 SSW 5.3 SW 0.0
06:25 8.3 99.5 4.5 SW 7.4 SW 0.0
06:30 8.3 99.5 5.4 SW 8.1 SW 0.0
06:35 8.2 99.5 4.3 WSW 6.0 WSW 0.0
06:40 8.2 99.5 3.0 WSW 5.3 W 0.0
06:45 8.2 99.5 3.2 WSW 4.6 WSW 0.0
06:50 8.2 99.5 1.7 SW 2.8 SW 0.0
06:55 8.2 99.5 0.1 WSW 1.8 WSW 0.0
07:00 8.2 99.5 0.1 E 1.1 E 0.0
07:05 8.2 99.6 2.1 E 3.9 E 0.0
07:10 8.3 99.6 2.5 ESE 3.9 ESE 0.0
07:15 8.2 99.6 2.9 E 4.6 E 0.0
07:20 8.3 99.6 1.1 NNE 3.5 N 0.0
07:25 8.3 99.6 0.5 N 3.2 N 0.0
07:30 8.3 99.6 2.0 N 4.6 N 0.0
07:35 8.3 99.6 2.5 N 4.2 N 0.0
07:40 8.2 99.5 2.6 NNE 3.5 NE 0.0
07:45 8.2 99.6 2.3 NNE 3.9 N 0.0
07:50 8.2 99.5 2.9 NNE 5.3 NNE 0.0
07:55 8.2 99.5 2.5 N 4.9 N 0.0
08:00 8.2 99.6 2.6 N 4.2 N 0.0
08:05 8.2 99.5 2.4 NNE 3.9 N 0.0
08:10 8.2 99.6 2.3 NE 3.2 NNE 0.0
08:15 8.3 99.6 1.2 NNE 2.8 NE 0.0
08:20 8.4 99.6 0.5 NNE 1.8 NNE 0.0
08:25 8.4 99.6 1.4 NNW 3.2 NNW 0.0
08:30 8.4 99.6 0.0 N 1.1 N 0.0
08:35 8.4 99.6 0.5 N 3.5 NNW 0.0
08:40 8.5 99.6 1.9 NW 4.2 NW 0.0
08:45 8.6 99.5 0.6 W 2.8 WNW 0.0
08:50 8.6 99.5 0.4 W 2.1 WNW 0.0
Máxima 9.6 99.6 6.4 SE 8.1 SW 0.1
Mínima 7.8 97.6
Total 0.2